Chaoyang, China
Current Conditions -  °F | °C
As of 1:30 PM on Tuesday 27 Jan 2015 (Local Time) from ZYTX Reporting Station
Clear Clear  
Wind Chill:   Ceiling: Unl
Heat Index: 14°   Visibility: 6mi
Dew Point: -4°   Wind: 4mph
Humidity: 45%   Direction: 170°S
Pressure: 30.56"   Gusts: NA
Location:  41.55°N, 120.42°E
Report Text: ZYTX 270530Z 17002MPS 110V230 CAVOK M10/M20 Q1035 NOSIG
Loading
Personal Weather Stations






























Interactive Weather Map New forecast layout! Learn more

10-Day Weather Forecast

Advertisements
Track Severe Weather on mobile